Time;durP1;ratioP1;P1;durP2;ratioP2;P2;SDS_P1;SDS_P2;PMS_P1;PMS_P2;Temp;Humidity;BMP_temperature;BMP_pressure;BME280_temperature;BME280_humidity;BME280_pressure;Samples;Min_cycle;Max_cycle;Signal;HPM_P1;HPM_P2
2022/04/24 00:01:52;;;;;;;20.20;12.80;;;11.70;99.90;;;;;;5078806;28;20192;-91
2022/04/24 00:04:18;;;;;;;22.67;13.10;;;11.70;99.90;;;;;;5078889;28;20188;-91
2022/04/24 00:06:46;;;;;;;23.80;13.20;;;11.60;99.90;;;;;;5078935;28;20224;-89
2022/04/24 00:09:13;;;;;;;20.70;12.88;;;11.60;99.90;;;;;;5081224;28;20176;-91
2022/04/24 00:11:39;;;;;;;17.85;12.05;;;11.60;99.90;;;;;;5001779;28;20235;-90
2022/04/24 00:14:09;;;;;;;23.80;13.50;;;11.60;99.90;;;;;;5016565;28;20171;-90
2022/04/24 00:16:36;;;;;;;24.77;13.75;;;11.60;99.90;;;;;;4994415;28;20206;-91
2022/04/24 00:19:02;;;;;;;24.40;13.48;;;11.60;99.90;;;;;;5018225;28;20638;-91
2022/04/24 00:21:28;;;;;;;21.30;13.35;;;11.60;99.90;;;;;;5035569;28;20174;-91
2022/04/24 00:23:54;;;;;;;19.67;12.67;;;11.60;99.90;;;;;;5036034;28;20166;-90
2022/04/24 00:26:20;;;;;;;23.20;12.70;;;11.50;99.90;;;;;;5019165;28;20600;-90
2022/04/24 00:28:45;;;;;;;22.93;12.90;;;11.50;99.90;;;;;;5021421;28;20198;-91
2022/04/24 00:31:11;;;;;;;22.47;12.60;;;11.50;99.90;;;;;;5039777;28;20179;-91
2022/04/24 00:33:37;;;;;;;22.00;12.50;;;11.50;99.90;;;;;;5020061;28;20198;-91
2022/04/24 00:36:02;;;;;;;21.43;12.90;;;11.50;99.90;;;;;;5019815;28;20207;-91
2022/04/24 00:38:28;;;;;;;22.00;12.93;;;11.50;99.90;;;;;;5019132;28;20195;-91
2022/04/24 00:40:54;;;;;;;28.40;14.67;;;11.40;99.90;;;;;;5038497;28;20424;-91
2022/04/24 00:43:20;;;;;;;28.93;15.87;;;11.40;99.90;;;;;;5020267;28;20199;-90
2022/04/24 00:45:47;;;;;;;23.38;15.00;;;11.40;99.90;;;;;;5032090;28;20462;-91
2022/04/24 00:48:13;;;;;;;27.00;15.88;;;11.40;99.90;;;;;;5051034;28;20239;-90
2022/04/24 00:50:39;;;;;;;24.83;13.97;;;11.40;99.90;;;;;;5036005;28;20581;-91
2022/04/24 00:53:06;;;;;;;26.60;14.70;;;11.30;99.90;;;;;;5033731;28;20191;-90
2022/04/24 00:55:32;;;;;;;29.42;14.13;;;11.30;99.90;;;;;;5016665;28;20451;-91
2022/04/24 00:57:58;;;;;;;25.75;16.17;;;11.30;99.90;;;;;;5017237;28;20195;-91
2022/04/24 01:00:24;;;;;;;23.50;14.07;;;11.30;99.90;;;;;;5018265;28;20239;-90
2022/04/24 01:02:50;;;;;;;25.53;15.67;;;11.30;99.90;;;;;;5034381;28;20557;-90
2022/04/24 01:05:17;;;;;;;26.50;13.83;;;11.30;99.90;;;;;;5034805;28;20190;-90
2022/04/24 01:07:44;;;;;;;27.45;15.95;;;11.20;99.90;;;;;;5017104;28;20964;-90
2022/04/24 01:10:09;;;;;;;25.70;16.38;;;11.20;99.90;;;;;;5034999;28;20560;-91
2022/04/24 01:12:35;;;;;;;24.47;15.83;;;11.20;99.90;;;;;;5017984;28;20289;-91
2022/04/24 01:15:01;;;;;;;29.47;15.57;;;11.20;99.90;;;;;;5019433;28;20243;-91
2022/04/24 01:17:27;;;;;;;24.60;15.07;;;11.20;99.90;;;;;;5018948;28;20436;-91
2022/04/24 01:19:53;;;;;;;29.20;18.08;;;11.20;99.90;;;;;;5017561;28;20187;-90
2022/04/24 01:22:19;;;;;;;25.35;15.32;;;11.10;99.90;;;;;;5035022;28;20191;-91
2022/04/24 01:24:45;;;;;;;28.83;16.50;;;11.10;99.90;;;;;;5034011;28;20224;-90
2022/04/24 01:27:10;;;;;;;36.73;18.40;;;11.10;99.90;;;;;;5016731;28;20711;-91
2022/04/24 01:29:36;;;;;;;27.00;16.07;;;11.10;99.90;;;;;;5017510;28;20188;-90
2022/04/24 01:32:02;;;;;;;25.80;15.93;;;11.10;99.90;;;;;;5034139;28;20696;-91
2022/04/24 01:34:28;;;;;;;35.90;18.10;;;11.10;99.90;;;;;;5033736;28;20419;-91
2022/04/24 01:36:54;;;;;;;32.33;16.43;;;11.10;99.90;;;;;;5015976;28;20509;-91
2022/04/24 01:39:20;;;;;;;22.40;14.97;;;11.10;99.90;;;;;;5034160;28;20181;-91
2022/04/24 01:41:45;;;;;;;30.30;17.30;;;11.10;99.90;;;;;;5016638;28;20204;-90
2022/04/24 01:44:12;;;;;;;33.20;17.57;;;11.10;99.90;;;;;;5035719;28;20408;-91
2022/04/24 01:46:37;;;;;;;30.38;17.45;;;11.10;99.90;;;;;;5018304;28;20952;-91
2022/04/24 01:49:03;;;;;;;26.20;16.97;;;11.00;99.90;;;;;;5035730;28;20175;-91
2022/04/24 01:51:29;;;;;;;31.47;16.47;;;11.10;99.90;;;;;;5036396;28;20179;-91
2022/04/24 01:53:55;;;;;;;30.73;18.00;;;11.10;99.90;;;;;;5036096;28;20415;-90
2022/04/24 01:56:20;;;;;;;28.20;16.63;;;11.00;99.90;;;;;;5030868;28;20204;-90
2022/04/24 01:58:46;;;;;;;26.00;15.27;;;11.00;99.90;;;;;;5015806;28;20210;-91
2022/04/24 02:01:12;;;;;;;26.80;15.63;;;11.00;99.90;;;;;;5038602;28;20183;-91
2022/04/24 02:03:37;;;;;;;30.47;16.57;;;11.00;99.90;;;;;;5026870;28;20202;-91
2022/04/24 02:06:04;;;;;;;27.83;15.63;;;11.00;99.90;;;;;;5015303;28;20241;-91
2022/04/24 02:08:35;;;;;;;34.53;17.23;;;11.00;99.90;;;;;;5032975;28;20197;-90
2022/04/24 02:11:02;;;;;;;30.95;18.00;;;11.00;99.90;;;;;;5014897;28;20238;-91
2022/04/24 02:13:28;;;;;;;26.15;16.25;;;11.00;99.90;;;;;;5015401;28;20202;-90
2022/04/24 02:15:53;;;;;;;28.07;17.67;;;11.00;99.90;;;;;;5040321;28;20180;-91
2022/04/24 02:18:19;;;;;;;26.10;16.57;;;11.00;99.90;;;;;;5054066;28;20647;-91
2022/04/24 02:20:45;;;;;;;27.53;15.77;;;11.00;99.90;;;;;;5054536;28;20213;-90
2022/04/24 02:23:11;;;;;;;31.40;17.37;;;11.00;99.90;;;;;;5037337;28;20198;-91
2022/04/24 02:25:36;;;;;;;34.17;18.90;;;11.00;99.90;;;;;;5036047;28;20433;-90
2022/04/24 02:28:02;;;;;;;35.33;18.17;;;11.00;99.90;;;;;;5054318;28;20190;-89
2022/04/24 02:30:30;;;;;;;39.97;19.40;;;11.00;99.90;;;;;;5037803;28;20215;-91
2022/04/24 02:33:00;;;;;;;30.73;17.50;;;11.00;99.90;;;;;;5057728;28;20419;-90
2022/04/24 02:35:27;;;;;;;34.97;18.25;;;11.00;99.90;;;;;;5040283;28;20190;-90
2022/04/24 02:37:53;;;;;;;29.80;17.83;;;11.00;99.90;;;;;;5039805;28;20198;-90
2022/04/24 02:40:22;;;;;;;31.23;18.27;;;10.90;99.90;;;;;;5034716;28;20184;-90
2022/04/24 02:42:50;;;;;;;31.25;19.00;;;10.90;99.90;;;;;;5033307;28;20431;-90
2022/04/24 02:45:16;;;;;;;31.88;18.80;;;10.90;99.90;;;;;;5063629;28;20207;-90
2022/04/24 02:47:42;;;;;;;29.73;16.40;;;10.90;99.90;;;;;;5053472;28;20290;-90
2022/04/24 02:50:08;;;;;;;31.03;18.40;;;10.90;99.90;;;;;;5039993;28;20206;-91
2022/04/24 02:52:53;;;;;;;28.67;17.20;;;10.90;99.90;;;;;;5062911;28;20398;-90
2022/04/24 02:55:20;;;;;;;31.10;17.10;;;10.90;99.90;;;;;;5053312;28;20455;-91
2022/04/24 02:57:46;;;;;;;31.50;18.30;;;10.90;99.90;;;;;;5033930;28;20566;-90
2022/04/24 03:00:19;;;;;;;41.42;20.02;;;10.90;99.90;;;;;;5052539;28;20185;-90
2022/04/24 03:02:46;;;;;;;33.38;18.27;;;10.80;99.90;;;;;;5052594;28;20221;-90
2022/04/24 03:05:15;;;;;;;29.80;16.80;;;10.80;99.90;;;;;;5034579;28;20194;-91
2022/04/24 03:07:41;;;;;;;30.08;17.33;;;10.80;99.90;;;;;;5034900;28;20225;-91
2022/04/24 03:10:11;;;;;;;31.30;18.85;;;10.80;99.90;;;;;;5051615;28;20694;-90
2022/04/24 03:12:39;;;;;;;36.97;19.35;;;10.80;99.90;;;;;;5034580;28;20211;-90
2022/04/24 03:15:06;;;;;;;30.35;17.33;;;10.80;99.90;;;;;;5034415;28;20182;-90
2022/04/24 03:17:32;;;;;;;33.17;18.80;;;10.80;99.90;;;;;;5035243;28;20243;-91
2022/04/24 03:19:59;;;;;;;35.00;19.50;;;10.80;99.90;;;;;;5015231;28;20183;-91
2022/04/24 03:22:30;;;;;;;33.42;20.63;;;10.80;99.90;;;;;;5015305;28;20956;-90
2022/04/24 03:24:56;;;;;;;34.30;18.65;;;10.80;99.90;;;;;;5032735;28;20273;-90
2022/04/24 03:27:21;;;;;;;31.60;18.40;;;10.80;99.90;;;;;;5015615;28;20261;-90
2022/04/24 03:29:47;;;;;;;31.30;19.60;;;10.80;99.90;;;;;;5033020;28;20428;-91
2022/04/24 03:32:13;;;;;;;30.07;17.10;;;10.80;99.90;;;;;;5018498;28;20209;-90
2022/04/24 03:34:38;;;;;;;29.73;18.73;;;10.80;99.90;;;;;;5017017;28;20187;-90
2022/04/24 03:37:04;;;;;;;34.77;20.13;;;10.80;99.90;;;;;;5034479;28;20214;-90
2022/04/24 03:39:30;;;;;;;34.42;19.20;;;10.80;99.90;;;;;;5015363;28;20202;-90
2022/04/24 03:41:56;;;;;;;31.03;17.70;;;10.80;99.90;;;;;;5016902;28;20203;-90
2022/04/24 03:44:22;;;;;;;34.23;19.07;;;10.80;99.90;;;;;;5035978;28;20441;-90
2022/04/24 03:46:48;;;;;;;32.33;19.05;;;10.80;99.90;;;;;;5034844;28;20667;-90
2022/04/24 03:49:16;;;;;;;32.53;17.10;;;10.90;99.90;;;;;;5016397;28;20215;-91
2022/04/24 03:51:42;;;;;;;33.65;19.50;;;10.80;99.90;;;;;;5016157;28;20970;-90
2022/04/24 03:54:08;;;;;;;32.42;18.42;;;10.80;99.90;;;;;;5035823;28;20174;-91
2022/04/24 03:56:34;;;;;;;34.63;20.70;;;10.80;99.90;;;;;;5020070;28;20175;-91
2022/04/24 03:59:00;;;;;;;32.42;19.73;;;10.80;99.90;;;;;;5020005;28;20932;-91
2022/04/24 04:01:26;;;;;;;28.17;16.83;;;10.80;99.90;;;;;;5040121;28;20683;-90
2022/04/24 04:03:53;;;;;;;33.30;16.90;;;10.70;99.90;;;;;;5022856;28;20175;-90
2022/04/24 04:06:19;;;;;;;30.50;18.05;;;10.70;99.90;;;;;;5018029;28;20446;-90
2022/04/24 04:08:45;;;;;;;41.42;20.02;;;10.80;99.90;;;;;;5034639;28;20197;-91
2022/04/24 04:11:12;;;;;;;34.50;20.52;;;10.70;99.90;;;;;;5034132;28;20238;-91
2022/04/24 04:13:38;;;;;;;31.75;18.15;;;10.80;99.90;;;;;;5034032;28;20214;-91
2022/04/24 04:16:04;;;;;;;34.58;18.77;;;10.70;99.90;;;;;;5037431;28;20178;-91
2022/04/24 04:18:30;;;;;;;34.75;19.33;;;10.80;99.90;;;;;;5056391;28;20189;-91
2022/04/24 04:20:56;;;;;;;34.20;20.30;;;10.80;99.90;;;;;;5037800;28;20189;-90
2022/04/24 04:23:21;;;;;;;36.10;19.73;;;10.80;99.90;;;;;;5037564;28;20198;-90
2022/04/24 04:25:47;;;;;;;33.93;18.63;;;10.80;99.90;;;;;;5036998;28;20221;-91
2022/04/24 04:28:13;;;;;;;32.20;18.27;;;10.80;99.90;;;;;;5037271;28;20253;-90
2022/04/24 04:30:38;;;;;;;32.90;19.97;;;10.80;99.90;;;;;;5055282;28;20178;-90
2022/04/24 04:33:04;;;;;;;33.50;20.23;;;10.90;99.90;;;;;;5057408;28;20193;-90
2022/04/24 04:35:30;;;;;;;32.27;18.43;;;10.90;99.90;;;;;;5038839;28;20238;-90
2022/04/24 04:37:56;;;;;;;34.53;20.93;;;10.90;99.90;;;;;;5038445;28;20431;-91
2022/04/24 04:40:22;;;;;;;36.03;19.23;;;10.90;99.90;;;;;;5037921;28;20189;-90
2022/04/24 04:42:48;;;;;;;34.17;19.63;;;10.90;99.90;;;;;;5037984;28;20640;-90
2022/04/24 04:45:15;;;;;;;34.35;19.10;;;11.00;99.90;;;;;;5055779;28;20182;-90
2022/04/24 04:47:40;;;;;;;38.55;20.48;;;11.00;99.90;;;;;;5039587;28;20237;-90
2022/04/24 04:50:07;;;;;;;32.33;19.13;;;11.00;99.90;;;;;;5038801;28;20189;-91
2022/04/24 04:52:33;;;;;;;28.17;17.67;;;11.00;99.90;;;;;;5055504;28;20216;-90
2022/04/24 04:54:59;;;;;;;29.08;17.80;;;11.10;99.90;;;;;;5036415;28;20177;-91
2022/04/24 04:57:25;;;;;;;31.85;18.85;;;11.10;99.90;;;;;;5037119;28;20204;-90
2022/04/24 04:59:51;;;;;;;32.37;19.67;;;11.10;99.90;;;;;;5038315;28;20190;-91
2022/04/24 05:02:17;;;;;;;32.80;18.20;;;11.10;99.90;;;;;;5038130;28;20422;-91
2022/04/24 05:04:43;;;;;;;34.37;19.73;;;11.20;99.90;;;;;;5037678;28;20423;-90
2022/04/24 05:07:13;;;;;;;29.97;17.87;;;11.20;99.90;;;;;;5038091;28;20927;-91
2022/04/24 05:09:39;;;;;;;38.13;18.65;;;11.20;99.90;;;;;;5055456;28;20470;-90
2022/04/24 05:12:07;;;;;;;29.90;17.83;;;11.30;99.90;;;;;;5038967;28;20202;-90
2022/04/24 05:14:33;;;;;;;29.33;18.75;;;11.30;99.90;;;;;;5043598;28;20182;-90
2022/04/24 05:16:59;;;;;;;32.37;18.80;;;11.30;99.90;;;;;;5038511;28;20240;-91
2022/04/24 05:19:25;;;;;;;31.15;18.83;;;11.40;99.90;;;;;;5032830;28;20416;-90
2022/04/24 05:21:52;;;;;;;32.03;19.98;;;11.40;99.90;;;;;;5015728;28;20289;-91
2022/04/24 05:24:18;;;;;;;34.08;19.80;;;11.40;99.90;;;;;;5014326;28;20225;-90
2022/04/24 05:26:44;;;;;;;31.67;18.27;;;11.50;99.90;;;;;;5031450;28;20244;-90
2022/04/24 05:29:10;;;;;;;33.17;18.23;;;11.50;99.90;;;;;;5014386;28;20420;-90
2022/04/24 05:31:36;;;;;;;30.38;18.20;;;11.50;99.90;;;;;;5033514;28;20182;-91
2022/04/24 05:34:02;;;;;;;28.87;17.67;;;11.60;99.90;;;;;;5016602;28;20174;-91
2022/04/24 05:36:28;;;;;;;31.30;18.40;;;11.60;99.90;;;;;;5018947;28;20270;-91
2022/04/24 05:38:53;;;;;;;31.83;18.80;;;11.70;99.90;;;;;;5017379;28;20183;-90
2022/04/24 05:41:20;;;;;;;33.77;17.10;;;11.80;99.90;;;;;;5034379;28;20243;-89
2022/04/24 05:43:46;;;;;;;37.67;20.33;;;11.80;99.90;;;;;;5017143;28;20270;-90
2022/04/24 05:46:12;;;;;;;29.90;18.13;;;11.90;99.90;;;;;;5049664;27;20302;-90
2022/04/24 05:48:38;;;;;;;31.65;19.92;;;11.90;99.90;;;;;;5042748;28;20431;-90
2022/04/24 05:51:04;;;;;;;31.77;18.57;;;12.00;99.90;;;;;;5018547;28;20224;-91
2022/04/24 05:53:29;;;;;;;33.30;19.73;;;12.10;99.90;;;;;;5017570;28;20420;-90
2022/04/24 05:55:56;;;;;;;32.40;19.10;;;12.10;99.90;;;;;;5017924;28;20187;-90
2022/04/24 05:58:22;;;;;;;31.20;17.60;;;12.20;99.90;;;;;;5034636;28;20674;-90
2022/04/24 06:00:47;;;;;;;26.83;16.93;;;12.20;99.90;;;;;;5017948;28;20186;-90
2022/04/24 06:03:13;;;;;;;31.33;18.13;;;12.30;99.90;;;;;;5019374;28;20594;-90
2022/04/24 06:05:39;;;;;;;27.80;17.77;;;12.40;99.90;;;;;;5030323;28;20271;-90
2022/04/24 06:08:05;;;;;;;28.93;16.60;;;12.40;99.90;;;;;;5025506;28;20194;-89
2022/04/24 06:10:30;;;;;;;29.03;17.83;;;12.50;99.90;;;;;;5035151;28;20223;-91
2022/04/24 06:12:57;;;;;;;32.67;19.30;;;12.60;99.90;;;;;;5012582;28;20790;-91
2022/04/24 06:15:27;;;;;;;29.77;16.87;;;12.60;99.90;;;;;;5012014;28;20424;-91
2022/04/24 06:17:55;;;;;;;28.53;18.57;;;12.70;99.90;;;;;;5012470;28;20432;-90
2022/04/24 06:20:22;;;;;;;32.50;18.10;;;12.80;99.90;;;;;;5031374;28;20420;-91
2022/04/24 06:22:50;;;;;;;29.90;17.15;;;12.90;99.90;;;;;;5033197;28;20506;-90
2022/04/24 06:25:17;;;;;;;27.88;18.85;;;12.90;99.90;;;;;;5016261;28;20655;-91
2022/04/24 06:27:44;;;;;;;29.00;17.40;;;13.00;99.90;;;;;;5015480;28;20221;-91
2022/04/24 06:30:11;;;;;;;29.70;17.80;;;13.10;99.90;;;;;;5033409;28;20524;-90
2022/04/24 06:32:41;;;;;;;30.10;17.23;;;13.20;99.90;;;;;;5032873;28;20419;-91
2022/04/24 06:35:09;;;;;;;29.70;18.20;;;13.30;99.90;;;;;;5015813;28;20856;-91
2022/04/24 06:37:38;;;;;;;28.70;18.40;;;13.40;99.90;;;;;;5017385;28;20500;-90
2022/04/24 06:40:09;;;;;;;28.20;16.60;;;13.50;99.90;;;;;;5034768;28;20502;-91
2022/04/24 06:42:46;;;;;;;27.13;18.33;;;13.60;99.90;;;;;;5017154;28;20956;-91
2022/04/24 06:45:11;;;;;;;38.03;18.60;;;13.70;99.90;;;;;;5016841;28;20443;-91
2022/04/24 06:47:37;;;;;;;28.43;17.13;;;13.90;99.90;;;;;;5035483;28;20470;-91
2022/04/24 06:50:03;;;;;;;24.43;16.57;;;14.00;99.90;;;;;;5017297;28;20581;-91
2022/04/24 06:52:29;;;;;;;23.00;14.53;;;14.10;99.90;;;;;;5034826;28;20191;-91
2022/04/24 06:54:55;;;;;;;24.73;16.13;;;14.20;99.90;;;;;;5016120;28;20435;-90
2022/04/24 06:57:20;;;;;;;23.83;15.10;;;14.30;99.90;;;;;;5034260;28;20199;-91
2022/04/24 06:59:46;;;;;;;23.13;15.30;;;14.40;99.90;;;;;;5017310;28;20209;-91
2022/04/24 07:02:12;;;;;;;27.13;15.60;;;14.50;99.90;;;;;;5016963;28;20209;-91
2022/04/24 07:04:37;;;;;;;19.00;13.57;;;14.60;99.90;;;;;;5017538;28;20208;-91
2022/04/24 07:07:03;;;;;;;22.73;14.17;;;14.70;99.90;;;;;;5032582;28;20245;-90
2022/04/24 07:09:29;;;;;;;21.63;14.43;;;14.80;99.90;;;;;;5027410;28;20606;-91
2022/04/24 07:11:55;;;;;;;21.77;14.97;;;14.90;99.90;;;;;;5035166;28;20438;-90
2022/04/24 07:14:21;;;;;;;24.40;16.77;;;15.00;99.90;;;;;;5036767;28;20439;-91
2022/04/24 07:16:47;;;;;;;23.83;15.10;;;15.10;99.90;;;;;;5024302;28;20431;-91
2022/04/24 07:19:12;;;;;;;20.50;15.10;;;15.20;99.90;;;;;;5034023;28;20198;-92
2022/04/24 07:21:38;;;;;;;19.67;14.40;;;15.30;99.90;;;;;;5043390;28;20656;-92
2022/04/24 07:24:04;;;;;;;22.60;15.20;;;15.40;99.90;;;;;;5023811;28;20186;-90
2022/04/24 07:26:30;;;;;;;19.37;14.47;;;15.50;99.90;;;;;;5014395;28;20214;-91
2022/04/24 07:28:55;;;;;;;21.17;14.00;;;15.60;99.90;;;;;;5035392;28;20411;-91
2022/04/24 07:31:21;;;;;;;20.03;12.93;;;15.70;99.90;;;;;;5030922;28;20190;-91
2022/04/24 07:33:47;;;;;;;18.13;12.73;;;15.80;99.90;;;;;;5052403;28;20265;-90
2022/04/24 07:36:14;;;;;;;17.60;13.33;;;15.90;99.90;;;;;;5037380;28;21029;-91
2022/04/24 07:38:40;;;;;;;20.70;14.07;;;16.00;99.90;;;;;;5086169;27;20207;-91
2022/04/24 07:41:05;;;;;;;19.33;13.63;;;16.10;99.90;;;;;;5049282;27;21012;-91
2022/04/24 07:43:33;;;;;;;15.90;11.63;;;16.20;99.90;;;;;;5098022;28;20745;-91
2022/04/24 07:45:58;;;;;;;17.50;13.90;;;16.30;99.90;;;;;;5057964;27;20282;-92
2022/04/24 07:48:25;;;;;;;21.50;14.30;;;16.40;99.90;;;;;;5072652;27;20423;-92
2022/04/24 07:50:51;;;;;;;21.53;14.37;;;16.60;99.90;;;;;;5102755;27;20182;-91
2022/04/24 07:53:19;;;;;;;23.30;15.33;;;16.70;99.90;;;;;;5020948;28;20831;-91
2022/04/24 07:55:46;;;;;;;18.10;14.03;;;16.90;99.90;;;;;;5017202;28;20431;-92
2022/04/24 07:58:13;;;;;;;24.97;15.60;;;17.00;99.90;;;;;;5017646;28;20435;-92
2022/04/24 08:00:40;;;;;;;17.30;12.17;;;17.10;99.90;;;;;;5023287;28;20454;-91
2022/04/24 08:03:10;;;;;;;16.03;11.47;;;17.20;99.90;;;;;;5019000;28;20459;-91
2022/04/24 08:05:37;;;;;;;17.57;12.30;;;17.40;99.90;;;;;;5020308;28;20459;-90
2022/04/24 08:08:17;;;;;;;16.43;12.20;;;17.60;99.90;;;;;;5023762;28;20533;-92
2022/04/24 08:10:45;;;;;;;16.03;10.83;;;17.70;99.90;;;;;;5033374;28;20489;-91
2022/04/24 08:13:11;;;;;;;16.17;11.30;;;17.90;99.90;;;;;;5034815;28;20432;-91
2022/04/24 08:15:37;;;;;;;14.40;10.33;;;18.00;99.90;;;;;;5015852;28;20487;-91
2022/04/24 08:18:05;;;;;;;16.77;10.67;;;18.10;99.90;;;;;;5033213;28;20286;-91
2022/04/24 08:20:32;;;;;;;14.07;10.43;;;18.30;99.90;;;;;;5016552;28;20448;-92
2022/04/24 08:22:59;;;;;;;13.83;10.77;;;18.40;99.90;;;;;;5087433;27;20935;-92
2022/04/24 08:26:14;;;;;;;11.93;10.20;;;18.50;99.90;;;;;;5121527;27;20432;-91
2022/04/24 08:28:40;;;;;;;13.20;9.67;;;18.70;99.90;;;;;;5142601;27;20441;-91
2022/04/24 08:31:32;;;;;;;14.90;10.83;;;18.90;99.90;;;;;;5094972;27;20946;-91
2022/04/24 08:33:58;;;;;;;14.40;10.37;;;19.00;99.90;;;;;;5016584;28;20187;-91
2022/04/24 08:36:24;;;;;;;11.83;8.60;;;19.10;99.90;;;;;;5014675;28;20919;-91
2022/04/24 08:38:50;;;;;;;12.70;8.83;;;19.20;99.90;;;;;;5017034;28;20184;-91
2022/04/24 08:41:21;;;;;;;12.83;9.50;;;19.20;99.90;;;;;;5019749;28;20520;-90
2022/04/24 08:43:50;;;;;;;11.37;8.40;;;19.30;99.90;;;;;;5017956;28;20866;-91
2022/04/24 08:46:16;;;;;;;11.67;9.33;;;19.40;99.90;;;;;;5034605;28;20476;-91
2022/04/24 08:48:43;;;;;;;13.23;8.93;;;19.40;99.90;;;;;;5105821;27;20587;-92
2022/04/24 08:51:10;;;;;;;9.50;8.07;;;19.50;99.90;;;;;;5075758;28;20568;-91
2022/04/24 08:53:38;;;;;;;12.57;10.00;;;19.60;99.90;;;;;;5009373;28;20550;-91
2022/04/24 08:56:04;;;;;;;15.20;9.20;;;19.80;99.90;;;;;;5015775;28;20431;-92
2022/04/24 08:58:31;;;;;;;13.00;9.40;;;19.90;99.90;;;;;;5033200;28;20431;-91
2022/04/24 09:00:56;;;;;;;11.97;8.70;;;20.10;99.90;;;;;;5033173;28;20881;-92
2022/04/24 09:03:22;;;;;;;9.53;7.83;;;20.50;99.90;;;;;;5031794;28;20529;-89
2022/04/24 09:05:48;;;;;;;10.83;8.80;;;20.80;99.90;;;;;;5029014;28;20451;-91
2022/04/24 09:08:14;;;;;;;9.03;7.50;;;21.00;99.90;;;;;;5003278;28;20443;-91
2022/04/24 09:11:07;;;;;;;7.83;5.63;;;21.10;99.90;;;;;;5037366;28;20497;-92
2022/04/24 09:14:24;;;;;;;7.00;5.20;;;21.20;99.90;;;;;;5014808;28;20540;-91
2022/04/24 09:16:37;;;;;;;8.30;5.90;;;21.20;99.90;;;;;;5054284;28;20450;-92
2022/04/24 09:19:04;;;;;;;6.07;4.57;;;21.20;99.90;;;;;;5032910;28;20951;-91
2022/04/24 09:21:30;;;;;;;6.40;4.40;;;21.30;99.90;;;;;;5094246;27;20427;-91
2022/04/24 09:24:00;;;;;;;6.60;5.00;;;21.30;99.90;;;;;;5040343;28;20481;-92
2022/04/24 09:26:26;;;;;;;5.73;5.17;;;21.30;99.90;;;;;;5018630;28;20479;-92
2022/04/24 09:28:52;;;;;;;5.33;4.13;;;21.40;99.90;;;;;;5029791;28;20407;-91
2022/04/24 09:31:27;;;;;;;5.43;3.87;;;21.40;99.90;;;;;;5028935;28;20222;-92
2022/04/24 09:33:53;;;;;;;3.83;3.47;;;21.50;99.90;;;;;;5029106;28;20159;-92
2022/04/24 09:36:26;;;;;;;4.50;3.97;;;21.50;99.90;;;;;;5030278;28;20423;-91
2022/04/24 09:38:54;;;;;;;5.77;4.77;;;21.60;99.90;;;;;;5036998;28;20185;-91
2022/04/24 09:41:22;;;;;;;5.67;5.10;;;21.70;99.90;;;;;;5024878;28;20435;-92
2022/04/24 09:43:49;;;;;;;6.80;5.83;;;21.80;99.90;;;;;;5047190;27;20443;-91
2022/04/24 09:46:43;;;;;;;6.63;5.90;;;21.80;99.90;;;;;;5021190;27;20480;-92
2022/04/24 09:49:09;;;;;;;6.63;5.30;;;21.90;99.90;;;;;;5024409;28;20497;-91
2022/04/24 09:51:42;;;;;;;5.77;4.23;;;22.00;99.90;;;;;;5070315;27;20491;-93
2022/04/24 09:54:09;;;;;;;9.23;5.33;;;22.00;99.90;;;;;;5060049;28;20948;-92
2022/04/24 09:56:36;;;;;;;7.53;5.80;;;22.00;99.90;;;;;;5032659;28;20511;-92
2022/04/24 09:59:03;;;;;;;6.10;5.17;;;22.10;99.90;;;;;;5027961;28;20451;-91
2022/04/24 10:01:29;;;;;;;5.40;4.33;;;22.20;99.90;;;;;;5027813;28;20954;-92
2022/04/24 10:03:55;;;;;;;6.57;4.27;;;22.30;99.90;;;;;;5015067;28;20490;-91
2022/04/24 10:06:23;;;;;;;5.80;5.07;;;22.30;99.90;;;;;;5053264;28;20215;-91
2022/04/24 10:08:52;;;;;;;5.20;4.30;;;22.30;99.90;;;;;;5016294;28;20424;-91
2022/04/24 10:11:21;;;;;;;4.33;3.93;;;22.30;99.90;;;;;;5024677;28;20467;-92
2022/04/24 10:13:50;;;;;;;6.30;2.67;;;22.40;99.90;;;;;;5036166;27;20461;-91
2022/04/24 10:16:44;;;;;;;4.03;2.53;;;22.40;99.90;;;;;;5027102;28;20432;-92
2022/04/24 10:19:16;;;;;;;2.60;2.40;;;22.50;99.90;;;;;;5007462;28;21004;-92
2022/04/24 10:22:09;;;;;;;1.57;1.47;;;22.50;99.90;;;;;;5009158;28;20453;-92
2022/04/24 10:24:42;;;;;;;3.20;2.10;;;22.60;99.90;;;;;;5006901;28;20447;-92
2022/04/24 10:27:11;;;;;;;1.70;1.30;;;22.60;99.90;;;;;;5015237;28;20516;-91
2022/04/24 10:29:59;;;;;;;3.47;2.00;;;22.70;99.90;;;;;;5045170;27;20418;-92
2022/04/24 10:32:32;;;;;;;2.97;2.00;;;22.70;99.90;;;;;;5016301;28;20505;-91
2022/04/24 10:35:00;;;;;;;1.40;1.30;;;22.70;99.90;;;;;;5015394;28;20524;-92
2022/04/24 10:37:33;;;;;;;2.80;1.60;;;22.70;99.90;;;;;;5018871;28;20456;-91
2022/04/24 10:40:00;;;;;;;1.60;1.50;;;22.80;99.00;;;;;;5030841;28;20413;-91
2022/04/24 10:42:35;;;;;;;2.00;1.80;;;22.80;98.80;;;;;;5024453;28;20473;-92
2022/04/24 10:45:09;;;;;;;3.00;2.23;;;22.90;99.70;;;;;;5016317;28;20411;-92
2022/04/24 10:47:45;;;;;;;2.80;2.23;;;22.90;99.90;;;;;;5037394;28;20483;-92
2022/04/24 10:50:11;;;;;;;2.90;2.20;;;22.90;99.30;;;;;;5032722;28;20965;-92
2022/04/24 10:52:44;;;;;;;2.80;2.53;;;22.80;98.70;;;;;;5053247;27;20533;-92
2022/04/24 10:55:13;;;;;;;2.03;1.80;;;22.80;98.10;;;;;;5020727;28;20423;-92
2022/04/24 10:57:47;;;;;;;4.47;1.80;;;22.80;99.10;;;;;;5013815;28;20448;-92
2022/04/24 11:00:23;;;;;;;3.30;2.37;;;22.80;98.80;;;;;;5014958;28;20424;-92
2022/04/24 11:02:51;;;;;;;2.03;1.83;;;22.80;99.20;;;;;;5014759;28;20444;-91
2022/04/24 11:05:26;;;;;;;6.20;2.30;;;22.80;98.10;;;;;;5086662;28;20399;-92
2022/04/24 11:08:03;;;;;;;3.43;1.50;;;22.80;98.80;;;;;;5076275;28;20865;-92
2022/04/24 11:10:30;;;;;;;2.30;1.47;;;22.80;96.20;;;;;;5017946;28;20496;-92
2022/04/24 11:12:56;;;;;;;1.67;1.57;;;22.70;95.80;;;;;;5014277;28;20494;-92
2022/04/24 11:15:22;;;;;;;2.10;1.90;;;22.70;95.50;;;;;;5009799;28;20445;-91
2022/04/24 11:17:48;;;;;;;2.67;1.97;;;22.70;95.60;;;;;;5010534;28;20232;-91
2022/04/24 11:20:16;;;;;;;1.70;1.60;;;22.60;95.90;;;;;;5032983;28;20984;-91
2022/04/24 11:22:56;;;;;;;2.30;2.10;;;22.60;96.20;;;;;;5127260;28;20210;-92
2022/04/24 11:25:24;;;;;;;1.83;1.63;;;22.50;95.50;;;;;;5107629;28;20419;-92
2022/04/24 11:27:57;;;;;;;1.63;1.53;;;22.50;95.50;;;;;;5108477;28;20540;-92
2022/04/24 11:30:28;;;;;;;2.63;1.93;;;22.40;95.80;;;;;;5109638;28;20415;-92
2022/04/24 11:33:08;;;;;;;2.60;2.07;;;22.40;95.90;;;;;;5129154;28;20434;-92
2022/04/24 11:35:36;;;;;;;2.30;1.60;;;22.30;95.50;;;;;;5112598;28;20399;-92
2022/04/24 11:38:03;;;;;;;1.93;1.43;;;22.20;95.40;;;;;;5110640;28;20877;-92
2022/04/24 11:40:30;;;;;;;3.30;2.37;;;22.20;95.80;;;;;;5111673;28;20403;-91
2022/04/24 11:43:03;;;;;;;2.93;2.50;;;22.10;96.20;;;;;;5113243;28;20834;-92
2022/04/24 11:51:17;;;;;;;4.70;1.43;;;21.90;99.90;;;;;;5134945;28;20812;-92
2022/04/24 11:53:44;;;;;;;2.40;1.40;;;21.60;99.90;;;;;;5118130;28;20472;-92
2022/04/24 11:56:13;;;;;;;3.50;1.53;;;21.40;99.90;;;;;;5119162;28;20419;-92
2022/04/24 11:58:41;;;;;;;2.40;1.97;;;21.20;99.90;;;;;;5120231;28;20518;-92
2022/04/24 12:01:10;;;;;;;1.87;1.47;;;21.00;99.90;;;;;;5116401;28;20493;-92
2022/04/24 12:03:37;;;;;;;2.30;1.87;;;20.90;99.90;;;;;;5116213;28;20858;-92
2022/04/24 12:06:05;;;;;;;4.60;1.77;;;20.70;99.90;;;;;;5117353;28;20456;-92
2022/04/24 12:08:52;;;;;;;3.40;2.70;;;20.60;99.90;;;;;;5136534;28;20430;-91
2022/04/24 12:11:29;;;;;;;6.23;3.17;;;20.30;99.90;;;;;;5101797;28;21007;-92
2022/04/24 12:14:10;;;;;;;4.33;3.43;;;20.00;99.90;;;;;;5115594;28;20781;-91
2022/04/24 12:16:40;;;;;;;5.00;3.13;;;19.70;99.90;;;;;;5101229;28;20792;-92
2022/04/24 12:19:08;;;;;;;3.60;2.90;;;19.30;99.90;;;;;;5101690;28;20415;-91
2022/04/24 12:21:49;;;;;;;3.97;3.33;;;19.10;99.90;;;;;;5118181;28;20475;-92
2022/04/24 12:24:16;;;;;;;6.53;3.20;;;18.90;99.90;;;;;;5101301;28;20923;-92
2022/04/24 12:26:53;;;;;;;7.27;3.60;;;18.70;99.90;;;;;;5119200;28;20586;-91
2022/04/24 12:29:20;;;;;;;5.23;3.87;;;18.70;99.90;;;;;;5100938;28;20424;-91
2022/04/24 12:31:47;;;;;;;4.90;3.30;;;18.60;99.90;;;;;;5101732;28;20454;-91
2022/04/24 12:34:14;;;;;;;6.23;3.50;;;18.60;99.90;;;;;;5101279;28;20429;-91
2022/04/24 12:36:54;;;;;;;5.00;3.60;;;18.60;99.90;;;;;;5119572;28;20520;-92
2022/04/24 12:39:25;;;;;;;7.70;3.40;;;18.60;99.90;;;;;;5119138;28;20789;-91
2022/04/24 12:41:52;;;;;;;6.93;4.20;;;18.60;99.90;;;;;;5117124;28;20798;-91
2022/04/24 12:44:17;;;;;;;7.20;2.97;;;18.70;99.90;;;;;;5120175;28;20390;-91